Estación Meteorológica Peña el Pijo (Robertgarden) [ 01/30/23 14:41:37 CET ]

Fecha Hora Presion(HPa) Temp (°C) Humedad % Rocio (°C) Viento ( m/s) Direccion Lluvia 1Hora(mm) Lluvia 24H(mm) LLuvia Total(mm)
2012-Jul-22 01:01:11 1015.300 19.9 63 12.6         167.83
2012-Jul-22 02:01:13 1015.100 17.9 65 11.2         167.83
2012-Jul-22 03:07:31 1015.000 16.4 68 10.5         167.83
2012-Jul-22 04:03:21 1014.600 15.4 71 10.2         167.83
2012-Jul-22 05:01:13 1014.600 14.4 74 9.8         167.83
2012-Jul-22 06:01:13 1014.600 13.9 75 9.5         167.83
2012-Jul-22 07:01:12 1014.800 12.9 76 8.7         167.83
2012-Jul-22 08:01:14 1014.600 13.5 78 9.7         167.83
2012-Jul-22 09:01:14 1014.700 19.3 72 14.1         167.83
2012-Jul-22 10:01:15 1014.700 22.6 61 14.7         167.83
2012-Jul-22 11:01:14 1014.600 27.1 49 15.4 0.8 E     167.83
2012-Jul-22 12:01:16 1014.300 31.8 36 14.8         167.83
2012-Jul-22 13:01:16 1014.200 32.9 25 10.1         167.83
2012-Jul-22 14:01:16 1013.800 34.4 23 10.1 0.9 SSW     167.83
2012-Jul-22 15:01:14 1013.400 35.4 21 9.7         167.83
2012-Jul-22 16:01:14 1013.200 35.4 21 9.7 1.1 NE     167.83
2012-Jul-22 17:01:11 1012.900 34.6 23 10.2 0.4 SW     167.83
2012-Jul-22 18:01:14 1012.600 34.8 21 9.2         167.83
2012-Jul-22 19:01:17 1012.300 32.9 31 13.6         167.83
2012-Jul-22 20:01:17 1012.400 32.3 32 13.4         167.83
2012-Jul-22 21:01:17 1012.600 28.6 27 7.6 0.7 SW     167.83
2012-Jul-22 22:01:14 1013.300 25.3 54 15.3 0.9 NE     167.83
2012-Jul-22 23:01:13 1014.100 23.3 61 15.3         167.83

Temperatura Máxima:35°    Temperatura Mínima:12°
Presión Máxima:1015.300 Hpa    Presión Mínima:1012.300 Hpa


Volver